Valentine, NE

11:04 AM CST on December 14, 2017 (GMT -0600)
Valentine west side | | Change Station

Elev 2590 ft 42.88 °N, 100.56 °W | Updated 2 seconds ago

Light Snow
Light Snow Mist
33.2 °F
Feels Like 23 °F
N
15.0
Wind Variable Wind from NW
Gusts 24.0 mph

Today
High -- | Low -- °F
--% Chance of Precip.
Yesterday
High -- | Low -- °F
Precip. -- in
Pressure 30.10 in
Visibility 3.0 miles
Clouds Scattered Clouds 1100 ft
Mostly Cloudy 1900 ft
Overcast 4200 ft
Windchill 23 °F
Dew Point 31 °F
Humidity 90%
Rainfall 0.02 in
Snow Depth Not available.
8:05 AM 5:08 PM
Waning Crescent, 11% visible
SPECI KVTN 141632Z AUTO 33017G24KT 3SM -SN BR SCT011 BKN019 OVC042 02/M01 A3010 RMK AO2 PK WND 32029/1619 P0000 T00171006 $
Pressure 30.10 in
Visibility 3.0 miles
Clouds Scattered Clouds 1100 ft
Mostly Cloudy 1900 ft
Overcast 4200 ft
Windchill 23 °F
Dew Point 31 °F
Humidity 90%
Rainfall 0.02 in
Snow Depth Not available.
8:05 AM 5:08 PM
Waning Crescent, 11% visible
SPECI KVTN 141632Z AUTO 33017G24KT 3SM -SN BR SCT011 BKN019 OVC042 02/M01 A3010 RMK AO2 PK WND 32029/1619 P0000 T00171006 $

Get Severe Weather Alerts

Thanks for signing up!

Be on the lookout for a verification email in your inbox.

You'll start receiving the daily forecast at 6 AM.

×

10-Day Weather Forecast

Almanac

Astronomy

Dec. 14, 2017 Rise Set
Actual Time
Civil Twilight
Nautical Twilight
Astronomical Twilight
Moon
Length of Visible Light
Length of Day
Tomorrow will be .
, % of the Moon is Illuminated

Today's Extremes

State Highs State Lows

Community

WunderPhotos

Category 6

Welcome to Category 6. This is the collective home for Weather Underground's featured writeups by Dr. Jeff Masters (right), Bob Henson (left), Chris Burt, and other regular contributors.

Nearby

Air Quality

  Air Quality AQ Index Pollutant
Not available.

Snow Depth

Station Depth Elevation

Earthquake Activity

City Distance Mag. Time & Date
Minimum magnitude displayed is 2.5.

Coastal Water Temperatures

Place Temperature

Stations

Nearby Weather Stations

Station Location Temp. Windchill Dew Point Humidity Wind Precip. Elev Updated Type
                   

Watches & Warnings

There are currently no watches in effect.